Time,TemperatureF,DewpointF,PressureIn,WindDirection,WindDirectionDegrees,WindSpeedMPH,WindSpeedGustMPH,Humidity,HourlyPrecipIn,Conditions,Clouds,dailyrainin,SoftwareType,DateUTC
2013-04-25 07:33:00,36.0,34.0,30.19,SW,221,2.0,5.0,92,0.00,,,0.48,,2013-04-25 11:33:00,
2013-04-25 07:42:00,36.0,34.0,30.19,SW,221,2.0,5.0,92,0.00,,,0.48,,2013-04-25 11:42:00,
2013-04-25 07:52:00,37.0,35.0,30.20,SSW,200,3.0,6.0,91,0.00,,,0.48,,2013-04-25 11:52:00,
2013-04-25 08:01:00,38.0,36.0,30.20,WSW,246,4.0,9.0,91,0.00,,,0.48,,2013-04-25 12:01:00,
2013-04-25 08:12:00,38.0,36.0,30.20,WSW,246,4.0,9.0,91,0.00,,,0.48,,2013-04-25 12:12:00,
2013-04-25 08:21:00,39.0,37.0,30.20,West,259,5.0,9.0,91,0.00,,,0.48,,2013-04-25 12:21:00,
2013-04-25 08:32:00,40.0,36.0,30.20,WSW,243,8.0,10.0,87,0.00,,,0.48,,2013-04-25 12:32:00,
2013-04-25 08:42:00,40.0,36.0,30.20,WSW,243,8.0,10.0,87,0.00,,,0.48,,2013-04-25 12:42:00,
2013-04-25 08:52:00,40.0,36.0,30.20,WSW,252,8.0,11.0,85,0.00,,,0.48,,2013-04-25 12:52:00,
2013-04-25 09:02:00,41.0,36.0,30.20,SW,229,6.0,10.0,81,0.00,,,0.48,,2013-04-25 13:02:00,
2013-04-25 09:11:00,41.0,36.0,30.20,SW,229,6.0,10.0,81,0.00,,,0.48,,2013-04-25 13:11:00,
2013-04-25 09:21:00,42.0,36.0,30.20,SW,232,7.0,13.0,79,0.00,,,0.48,,2013-04-25 13:21:00,
2013-04-25 09:32:00,43.0,36.0,30.21,WSW,246,7.0,11.0,76,0.00,,,0.48,,2013-04-25 13:32:00,
2013-04-25 09:42:00,43.0,36.0,30.21,WSW,246,7.0,11.0,76,0.00,,,0.48,,2013-04-25 13:42:00,
2013-04-25 09:53:00,43.0,34.0,30.21,SW,217,8.0,14.0,70,0.00,,,0.48,,2013-04-25 13:53:00,
2013-04-25 10:02:00,44.0,37.0,30.21,SW,226,8.0,14.0,75,0.00,,,0.48,,2013-04-25 14:02:00,
2013-04-25 10:11:00,44.0,37.0,30.21,SW,226,8.0,14.0,75,0.00,,,0.48,,2013-04-25 14:11:00,
2013-04-25 10:21:00,44.0,35.0,30.22,SW,224,8.0,16.0,70,0.00,,,0.48,,2013-04-25 14:21:00,
2013-04-25 10:32:00,44.0,36.0,30.22,SW,236,9.0,13.0,72,0.00,,,0.48,,2013-04-25 14:32:00,
2013-04-25 10:42:00,44.0,36.0,30.22,SW,236,9.0,13.0,72,0.00,,,0.48,,2013-04-25 14:42:00,
2013-04-25 10:52:00,45.0,35.0,30.21,East,86,7.0,16.0,69,0.00,,,0.48,,2013-04-25 14:52:00,
2013-04-25 11:02:00,46.0,35.0,30.22,WSW,256,11.0,15.0,64,0.00,,,0.48,,2013-04-25 15:02:00,
2013-04-25 11:11:00,46.0,35.0,30.22,WSW,256,11.0,15.0,64,0.00,,,0.48,,2013-04-25 15:11:00,
2013-04-25 11:21:00,46.0,35.0,30.21,SSW,195,9.0,11.0,65,0.00,,,0.48,,2013-04-25 15:21:00,
2013-04-25 11:33:00,46.0,35.0,30.21,SW,236,9.0,14.0,64,0.00,,,0.48,,2013-04-25 15:33:00,
2013-04-25 11:42:00,46.0,35.0,30.21,SW,236,9.0,14.0,64,0.00,,,0.48,,2013-04-25 15:42:00,
2013-04-25 11:53:00,47.0,34.0,30.22,WSW,252,8.0,14.0,60,0.00,,,0.48,,2013-04-25 15:53:00,
2013-04-25 12:02:00,48.0,36.0,30.21,SSW,203,6.0,13.0,62,0.00,,,0.48,,2013-04-25 16:02:00,
2013-04-25 12:13:00,48.0,36.0,30.21,SSW,203,6.0,13.0,62,0.00,,,0.48,,2013-04-25 16:13:00,
2013-04-25 12:24:00,48.0,31.0,30.21,WSW,239,7.0,14.0,51,0.00,,,0.48,,2013-04-25 16:24:00,
2013-04-25 12:33:00,48.0,31.0,30.21,WSW,245,11.0,18.0,51,0.00,,,0.48,,2013-04-25 16:33:00,
2013-04-25 12:43:00,48.0,31.0,30.21,WSW,245,11.0,18.0,51,0.00,,,0.48,,2013-04-25 16:43:00,
2013-04-25 12:53:00,48.0,30.0,30.21,SW,233,9.0,16.0,50,0.00,,,0.48,,2013-04-25 16:53:00,
2013-04-25 13:02:00,48.0,29.0,30.20,SW,228,9.0,21.0,48,0.00,,,0.48,,2013-04-25 17:02:00,
2013-04-25 13:11:00,48.0,29.0,30.20,SW,228,9.0,21.0,48,0.00,,,0.48,,2013-04-25 17:11:00,
2013-04-25 13:22:00,49.0,30.0,30.20,SW,235,11.0,18.0,47,0.00,,,0.47,,2013-04-25 17:22:00,
2013-04-25 13:32:00,49.0,28.0,30.20,SW,214,10.0,19.0,44,0.00,,,0.47,,2013-04-25 17:32:00,
2013-04-25 13:42:00,49.0,28.0,30.20,SW,214,10.0,19.0,44,0.00,,,0.47,,2013-04-25 17:42:00,
2013-04-25 13:53:00,49.0,25.0,30.20,WSW,248,10.0,19.0,38,0.00,,,0.47,,2013-04-25 17:53:00,
2013-04-25 14:01:00,49.0,23.0,30.20,SSW,208,9.0,19.0,35,0.00,,,0.47,,2013-04-25 18:01:00,
2013-04-25 14:11:00,49.0,23.0,30.20,SSW,208,9.0,19.0,35,0.00,,,0.47,,2013-04-25 18:11:00,
2013-04-25 14:22:00,50.0,23.0,30.20,WSW,248,9.0,15.0,34,0.00,,,0.38,,2013-04-25 18:22:00,
2013-04-25 14:32:00,51.0,27.0,30.19,WSW,249,12.0,20.0,39,0.00,,,0.38,,2013-04-25 18:32:00,
2013-04-25 14:43:00,51.0,27.0,30.19,WSW,249,12.0,20.0,39,0.00,,,0.38,,2013-04-25 18:43:00,
2013-04-25 14:53:00,51.0,27.0,30.19,SW,228,14.0,19.0,39,0.00,,,0.38,,2013-04-25 18:53:00,
2013-04-25 15:02:00,51.0,28.0,30.19,West,271,9.0,14.0,40,0.00,,,0.38,,2013-04-25 19:02:00,
2013-04-25 15:12:00,51.0,28.0,30.19,West,271,9.0,14.0,40,0.00,,,0.38,,2013-04-25 19:12:00,
2013-04-25 15:21:00,52.0,28.0,30.18,West,264,10.0,18.0,40,0.00,,,0.30,,2013-04-25 19:21:00,
2013-04-25 15:32:00,52.0,31.0,30.18,SSW,208,6.0,16.0,45,0.00,,,0.30,,2013-04-25 19:32:00,
2013-04-25 15:42:00,52.0,31.0,30.18,SSW,208,6.0,16.0,45,0.00,,,0.30,,2013-04-25 19:42:00,
2013-04-25 15:52:00,52.0,29.0,30.18,SE,136,9.0,20.0,41,0.00,,,0.30,,2013-04-25 19:52:00,
2013-04-25 16:02:00,53.0,31.0,30.17,SW,222,6.0,14.0,42,0.00,,,0.30,,2013-04-25 20:02:00,
2013-04-25 16:11:00,53.0,31.0,30.17,SW,222,6.0,14.0,42,0.00,,,0.30,,2013-04-25 20:11:00,
2013-04-25 16:22:00,52.0,30.0,30.16,SW,236,7.0,19.0,42,0.00,,,0.24,,2013-04-25 20:22:00,
2013-04-25 16:32:00,52.0,30.0,30.16,West,263,11.0,19.0,42,0.00,,,0.24,,2013-04-25 20:32:00,
2013-04-25 16:42:00,52.0,30.0,30.16,West,263,11.0,19.0,42,0.00,,,0.24,,2013-04-25 20:42:00,
2013-04-25 16:52:00,52.0,30.0,30.17,West,269,9.0,17.0,42,0.00,,,0.24,,2013-04-25 20:52:00,
2013-04-25 17:01:00,52.0,30.0,30.17,WSW,239,8.0,18.0,43,0.00,,,0.24,,2013-04-25 21:01:00,
2013-04-25 17:11:00,52.0,30.0,30.17,WSW,239,8.0,18.0,43,0.00,,,0.24,,2013-04-25 21:11:00,
2013-04-25 17:22:00,52.0,30.0,30.17,WSW,256,10.0,15.0,43,0.00,,,0.23,,2013-04-25 21:22:00,
2013-04-25 17:33:00,52.0,30.0,30.16,WSW,244,8.0,14.0,43,0.00,,,0.23,,2013-04-25 21:33:00,
2013-04-25 17:42:00,52.0,30.0,30.16,WSW,244,8.0,14.0,43,0.00,,,0.23,,2013-04-25 21:42:00,
2013-04-25 17:53:00,51.0,29.0,30.17,West,277,11.0,15.0,43,0.00,,,0.23,,2013-04-25 21:53:00,
2013-04-25 18:03:00,51.0,31.0,30.18,West,259,11.0,16.0,46,0.00,,,0.23,,2013-04-25 22:03:00,
2013-04-25 18:12:00,51.0,31.0,30.18,West,259,11.0,16.0,46,0.00,,,0.23,,2013-04-25 22:12:00,
2013-04-25 18:22:00,51.0,31.0,30.19,NNW,330,13.0,28.0,47,0.00,,,0.12,,2013-04-25 22:22:00,
2013-04-25 18:33:00,50.0,34.0,30.19,West,269,15.0,29.0,53,0.00,,,0.12,,2013-04-25 22:33:00,
2013-04-25 18:42:00,50.0,34.0,30.19,West,269,15.0,29.0,53,0.00,,,0.12,,2013-04-25 22:42:00,
2013-04-25 18:53:00,48.0,35.0,30.21,West,281,19.0,31.0,60,0.00,,,0.12,,2013-04-25 22:53:00,
2013-04-25 19:02:00,46.0,37.0,30.23,West,276,16.0,25.0,70,0.00,,,0.12,,2013-04-25 23:02:00,
2013-04-25 19:12:00,46.0,37.0,30.23,West,276,16.0,25.0,70,0.00,,,0.12,,2013-04-25 23:12:00,
2013-04-25 19:22:00,43.0,37.0,30.24,West,265,16.0,22.0,80,0.01,,,0.05,,2013-04-25 23:22:00,
2013-04-25 19:32:00,42.0,38.0,30.24,SW,233,9.0,14.0,84,0.01,,,0.05,,2013-04-25 23:32:00,
2013-04-25 19:42:00,42.0,38.0,30.24,SW,233,9.0,14.0,84,0.01,,,0.05,,2013-04-25 23:42:00,
2013-04-25 19:52:00,42.0,38.0,30.23,SW,229,6.0,10.0,85,0.01,,,0.05,,2013-04-25 23:52:00,
2013-04-25 20:01:00,42.0,38.0,30.24,WSW,255,6.0,11.0,85,0.01,,,0.05,,2013-04-26 00:01:00,
2013-04-25 20:11:00,42.0,38.0,30.24,WSW,255,6.0,11.0,85,0.01,,,0.05,,2013-04-26 00:11:00,
2013-04-25 20:21:00,42.0,38.0,30.24,WSW,256,6.0,10.0,84,0.00,,,0.03,,2013-04-26 00:21:00,
2013-04-25 20:32:00,42.0,38.0,30.24,SSW,205,6.0,10.0,84,0.00,,,0.03,,2013-04-26 00:32:00,
2013-04-25 20:42:00,42.0,38.0,30.24,SSW,205,6.0,10.0,84,0.00,,,0.03,,2013-04-26 00:42:00,
2013-04-25 20:52:00,43.0,38.0,30.24,SW,226,4.0,10.0,84,0.00,,,0.03,,2013-04-26 00:52:00,
2013-04-25 21:01:00,43.0,38.0,30.25,SW,223,4.0,7.0,84,0.00,,,0.03,,2013-04-26 01:01:00,
2013-04-25 21:11:00,43.0,38.0,30.25,SW,223,4.0,7.0,84,0.00,,,0.03,,2013-04-26 01:11:00,
2013-04-25 21:21:00,43.0,38.0,30.26,SW,228,8.0,12.0,84,0.00,,,0.02,,2013-04-26 01:21:00,
2013-04-25 21:32:00,43.0,37.0,30.27,NW,311,11.0,19.0,79,0.00,,,0.02,,2013-04-26 01:32:00,
2013-04-25 21:42:00,43.0,37.0,30.27,NW,311,11.0,19.0,79,0.00,,,0.02,,2013-04-26 01:42:00,
2013-04-25 21:52:00,40.0,36.0,30.29,West,277,9.0,16.0,85,0.00,,,0.02,,2013-04-26 01:52:00,
2013-04-25 22:02:00,40.0,37.0,30.29,WSW,255,8.0,15.0,88,0.02,,,0.04,,2013-04-26 02:02:00,
2013-04-25 22:12:00,40.0,37.0,30.29,WSW,255,8.0,15.0,88,0.02,,,0.04,,2013-04-26 02:12:00,
2013-04-25 22:21:00,39.0,36.0,30.29,WSW,243,5.0,6.0,90,0.02,,,0.03,,2013-04-26 02:21:00,
2013-04-25 22:32:00,39.0,37.0,30.29,SSW,198,3.0,5.0,91,0.02,,,0.03,,2013-04-26 02:32:00,
2013-04-25 22:42:00,39.0,37.0,30.29,SSW,198,3.0,5.0,91,0.02,,,0.03,,2013-04-26 02:42:00,
2013-04-25 22:52:00,39.0,37.0,30.29,SW,217,4.0,6.0,91,0.02,,,0.03,,2013-04-26 02:52:00,
2013-04-25 23:01:00,38.0,36.0,30.30,SW,224,4.0,5.0,92,0.00,,,0.03,,2013-04-26 03:01:00,
2013-04-25 23:11:00,38.0,36.0,30.30,SW,224,4.0,5.0,92,0.00,,,0.03,,2013-04-26 03:11:00,
2013-04-25 23:22:00,38.0,36.0,30.30,WSW,246,4.0,7.0,92,0.00,,,0.03,,2013-04-26 03:22:00,
2013-04-25 23:33:00,38.0,36.0,30.31,SW,236,4.0,7.0,92,0.00,,,0.03,,2013-04-26 03:33:00,
2013-04-25 23:43:00,38.0,36.0,30.31,SW,236,4.0,7.0,92,0.00,,,0.03,,2013-04-26 03:43:00,
2013-04-25 23:53:00,38.0,36.0,30.31,SW,236,4.0,6.0,92,0.00,,,0.03,,2013-04-26 03:53:00,